Pauma Valley (249, 217) Station Data

Red Flag Warning: No
Fire Weather Zone: 250
SDGE Region: North East
Lat/Lon: 33.371/-117.079

Observations

Time Wind Speed/Gust Temp(F) RH Fuel Moist Fuel Temp(F) Dewpt(F) Tmax(F) Tmin(F) Accum Precip 10-min Precip SL Press(mb)
5/24 8:30am 344 2 G 6 58° 93% - - 56° 59.6° 55° - - -
5/24 8:20am 268 3 G 7 58° 93% - - 55° 59.6° 55° - - -
5/24 8:10am 305 2 G 4 57° 93% - - 55° 59.6° 55° - - -
5/24 8:00am 18 2 G 5 57° 93% - - 55° 59.6° 55° - - -
5/24 7:50am 82 3 G 5 57° 93% - - 55° 59.6° 55° - - -
5/24 7:40am 112 4 G 6 57° 93% - - 55° 59.6° 55° - - -
5/24 7:30am 170 3 G 6 57° 93% - - 55° 59.6° 55° - - -
5/24 7:20am 187 4 G 6 57° 93% - - 55° 59.6° 55° - - -
5/24 7:10am 191 4 G 5 57° 93% - - 55° 59.6° 55° - - -
5/24 7:00am 169 3 G 8 57° 93% - - 55° 59.6° 55° - - -
5/24 6:50am 318 2 G 5 56° 93% - - 54° 59.6° 55° - - -
5/24 6:40am 334 2 G 4 56° 93% - - 54° 59.6° 55° - - -
5/24 6:30am 333 1 G 2 56° 93% - - 54° 59.6° 55° - - -
5/24 6:20am 339 2 G 3 56° 93% - - 54° 59.6° 55° - - -
5/24 6:10am 349 3 G 4 55° 93% - - 53° 59.6° 55° - - -
5/24 6:00am 345 3 G 5 55° 93% - - 53° 59.6° 55° - - -
5/24 5:50am 338 5 G 7 56° 93% - - 54° 59.6° 55.1° - - -
5/24 5:40am 319 3 G 4 56° 93% - - 54° 59.6° 55.8° - - -
5/24 5:30am 325 3 G 4 56° 93% - - 54° 59.6° 55.8° - - -
5/24 5:20am 357 3 G 5 56° 93% - - 54° 59.6° 55.8° - - -
5/24 5:10am 342 3 G 5 56° 93% - - 54° 59.6° 56° - - -
5/24 5:00am 333 3 G 4 57° 93% - - 55° 59.6° 56.3° - - -
5/24 4:50am 327 3 G 4 57° 93% - - 55° 59.6° 56.6° - - -
5/24 4:40am 319 2 G 3 57° 93% - - 55° 59.6° 56.6° - - -
5/24 4:30am 335 1 G 2 57° 93% - - 55° 59.6° 56.6° - - -
5/24 4:20am 30 1 G 2 57° 93% - - 55° 59.6° 56.6° - - -
5/24 4:10am 284 2 G 4 57° 92% - - 55° 59.6° 56.6° - - -
5/24 4:00am 231 3 G 5 57° 92% - - 55° 59.6° 56.6° - - -
5/24 3:50am 257 2 G 3 57° 92% - - 55° 59.6° 56.7° - - -
5/24 3:40am 309 2 G 3 57° 92% - - 55° 59.6° 56.7° - - -
5/24 3:30am 305 2 G 3 57° 92% - - 55° 59.6° 56.7° - - -
5/24 3:20am 298 2 G 3 57° 92% - - 55° 59.6° 56.7° - - -
5/24 3:10am 307 1 G 2 57° 92% - - 55° 59.6° 56.7° - - -
5/24 3:00am 136 0 G 1 57° 92% - - 55° 59.6° 56.7° - - -
5/24 2:50am 183 1 G 3 57° 92% - - 55° 59.6° 56.7° - - -
5/24 2:40am 194 2 G 3 57° 92% - - 55° 59.6° 56.7° - - -
5/24 2:30am 217 1 G 2 57° 92% - - 55° 59.6° 56.9° - - -
5/24 2:20am 351 2 G 3 58° 92% - - 55° 59.6° 57.5° - - -
5/24 2:10am 337 1 G 3 58° 92% - - 55° 59.6° 57.5° - - -
5/24 2:00am 309 2 G 4 58° 92% - - 56° 59.6° 57.5° - - -
5/24 1:50am 276 1 G 3 58° 92% - - 56° 59.6° 57.5° - - -
5/24 1:40am 309 3 G 4 58° 91% - - 56° 59.6° 57.5° - - -
5/24 1:30am 271 3 G 5 58° 91% - - 55° 59.6° 57.5° - - -
5/24 1:20am 263 2 G 4 58° 91% - - 55° 59.6° 57.5° - - -
5/24 1:10am 256 3 G 5 58° 91% - - 55° 59.6° 57.5° - - -
5/24 1:00am 257 2 G 4 58° 90% - - 55° 59.6° 57.8° - - -
5/24 12:50am 290 2 G 5 58° 90% - - 55° 59.6° 58° - - -
5/24 12:40am 297 3 G 6 58° 90% - - 55° 59.6° 58.1° - - -
5/24 12:30am 273 5 G 8 59° 89% - - 55° 59.6° 58.3° - - -
5/24 12:20am 256 4 G 8 59° 88% - - 56° 59.6° 58.6° - - -
5/24 12:10am 241 1 G 3 59° 88% - - 56° 59.6° 59.1° - - -
5/24 12:00am 266 3 G 6 60° 88% - - 56° 89.1° 55.1° - - -
5/23 11:50pm 266 4 G 6 60° 87% - - 56° 89.1° 55.1° - - -
5/23 11:40pm 269 4 G 7 60° 87% - - 56° 89.1° 55.1° - - -
5/23 11:30pm 289 4 G 6 60° 87% - - 56° 89.1° 55.1° - - -
5/23 11:20pm 276 4 G 7 60° 86% - - 56° 89.1° 55.1° - - -
5/23 11:10pm 273 5 G 7 60° 86% - - 56° 89.1° 55.1° - - -
5/23 11:00pm 276 5 G 8 60° 86% - - 56° 89.1° 55.1° - - -
5/23 10:50pm 271 5 G 9 61° 85% - - 56° 89.1° 55.1° - - -
5/23 10:40pm 275 3 G 7 61° 84% - - 56° 89.1° 55.1° - - -
5/23 10:30pm 298 2 G 5 61° 83% - - 56° 89.1° 55.1° - - -
5/23 10:20pm 281 4 G 8 62° 82% - - 56° 89.1° 55.1° - - -
5/23 10:10pm 270 6 G 10 62° 81% - - 56° 89.1° 55.1° - - -
5/23 10:00pm 274 6 G 10 63° 80% - - 56° 89.1° 55.1° - - -
5/23 9:50pm 270 6 G 10 63° 79% - - 56° 89.1° 55.1° - - -
5/23 9:40pm 271 5 G 8 64° 77% - - 56° 89.1° 55.1° - - -
5/23 9:30pm 274 4 G 8 64° 76% - - 56° 89.1° 55.1° - - -
5/23 9:20pm 272 4 G 8 65° 74% - - 56° 89.1° 55.1° - - -
5/23 9:10pm 267 4 G 8 65° 73% - - 56° 89.1° 55.1° - - -
5/23 9:00pm 260 2 G 5 66° 72% - - 56° 89.1° 55.1° - - -
5/23 8:50pm 250 2 G 5 66° 70% - - 56° 89.1° 55.1° - - -
5/23 8:40pm 241 3 G 5 66° 69% - - 56° 89.1° 55.1° - - -
5/23 8:30pm 321 1 G 2 67° 68% - - 56° 89.1° 55.1° - - -
5/23 8:20pm 228 2 G 4 67° 68% - - 56° 89.1° 55.1° - - -
5/23 8:10pm 229 2 G 4 68° 66% - - 56° 89.1° 55.1° - - -
5/23 8:00pm 354 1 G 4 68° 65% - - 56° 89.1° 55.1° - - -
5/23 7:50pm 288 3 G 7 68° 65% - - 56° 89.1° 55.1° - - -
5/23 7:40pm 266 3 G 6 68° 63% - - 56° 89.1° 55.1° - - -
5/23 7:30pm 273 3 G 7 69° 62% - - 56° 89.1° 55.1° - - -
5/23 7:20pm 276 3 G 7 70° 61% - - 56° 89.1° 55.1° - - -
5/23 7:10pm 260 4 G 8 70° 60% - - 56° 89.1° 55.1° - - -
5/23 7:00pm 256 5 G 9 71° 59% - - 56° 89.1° 55.1° - - -
5/23 6:50pm 250 7 G 14 71° 59% - - 56° 89.1° 55.1° - - -
5/23 6:40pm 250 9 G 16 71° 59% - - 56° 89.1° 55.1° - - -
5/23 6:30pm 246 12 G 17 72° 57% - - 56° 89.1° 55.1° - - -
5/23 6:20pm 248 10 G 16 72° 56% - - 56° 89.1° 55.1° - - -
5/23 6:10pm 244 12 G 19 73° 55% - - 56° 89.1° 55.1° - - -
5/23 6:00pm 244 12 G 19 74° 52% - - 55° 89.1° 55.1° - - -
5/23 5:50pm 246 13 G 19 75° 49% - - 55° 89.1° 55.1° - - -
5/23 5:40pm 249 11 G 16 77° 47% - - 55° 89.1° 55.1° - - -
5/23 5:30pm 244 9 G 17 78° 44% - - 54° 89.1° 55.1° - - -
5/23 5:20pm 246 10 G 17 80° 40% - - 53° 89.1° 55.1° - - -
5/23 5:10pm 245 9 G 17 81° 37% - - 53° 89.1° 55.1° - - -
5/23 5:00pm 238 8 G 16 83° 35% - - 53° 89.1° 55.1° - - -
5/23 4:50pm 257 7 G 12 83° 35% - - 53° 89.1° 55.1° - - -
5/23 4:40pm 249 7 G 12 82° 35% - - 52° 89.1° 55.1° - - -
5/23 4:30pm 261 8 G 12 82° 35% - - 52° 89.1° 55.1° - - -
5/23 4:20pm 255 7 G 14 82° 36% - - 53° 89.1° 55.1° - - -
5/23 4:10pm 261 7 G 11 82° 37% - - 53° 89.1° 55.1° - - -
5/23 4:00pm 271 6 G 9 81° 38% - - 53° 89.1° 55.1° - - -
5/23 3:50pm 249 7 G 12 81° 37% - - 52° 89.1° 55.1° - - -
5/23 3:40pm 245 7 G 11 81° 37% - - 52° 89.1° 55.1° - - -
5/23 3:30pm 261 6 G 11 81° 37% - - 52° 89.1° 55.1° - - -
5/23 3:20pm 277 6 G 11 79° 38% - - 52° 89.1° 55.1° - - -
5/23 3:10pm 261 6 G 10 79° 42% - - 53° 89.1° 55.1° - - -
5/23 3:00pm 263 6 G 12 77° 44% - - 54° 89.1° 55.1° - - -
5/23 2:50pm 266 8 G 13 76° 48% - - 55° 89.1° 55.1° - - -
5/23 2:40pm 245 9 G 14 76° 49% - - 55° 89.1° 55.1° - - -
5/23 2:30pm 244 10 G 17 75° 51% - - 56° 89.1° 55.1° - - -
5/23 2:20pm 251 11 G 17 75° 52% - - 56° 89.1° 55.1° - - -
5/23 2:10pm 244 12 G 17 75° 52% - - 56° 89.1° 55.1° - - -
5/23 2:00pm 240 10 G 16 75° 50% - - 56° 89.1° 55.1° - - -
5/23 1:50pm 242 11 G 18 75° 51% - - 56° 89.1° 55.1° - - -
5/23 1:40pm 243 11 G 17 75° 51% - - 56° 89.1° 55.1° - - -
5/23 1:30pm 246 9 G 19 75° 51% - - 56° 89.1° 55.1° - - -
5/23 1:20pm 251 10 G 15 74° 52% - - 56° 89.1° 55.1° - - -
5/23 1:10pm 249 10 G 17 74° 53% - - 56° 89.1° 55.1° - - -
5/23 1:00pm 250 11 G 18 74° 54% - - 56° 89.1° 55.1° - - -
5/23 12:50pm 246 11 G 19 74° 54% - - 56° 89.1° 55.1° - - -
5/23 12:40pm 248 13 G 22 73° 56% - - 56° 89.1° 55.1° - - -
5/23 12:30pm 244 15 G 23 72° 56% - - 56° 89.1° 55.1° - - -
5/23 12:20pm 249 16 G 24 73° 55% - - 56° 89.1° 55.1° - - -
5/23 12:10pm 245 15 G 25 74° 52% - - 56° 89.1° 55.1° - - -
5/23 12:00pm 246 14 G 25 75° 50% - - 56° 89.1° 55.1° - - -
5/23 11:50am 237 14 G 26 77° 47% - - 55° 89.1° 55.1° - - -
5/23 11:40am 234 16 G 26 79° 43% - - 55° 89.1° 55.1° - - -
5/23 11:30am 226 14 G 21 84° 34% - - 52° 89.1° 55.1° - - -
5/23 11:20am 225 11 G 17 86° 29% - - 50° 89.1° 55.1° - - -
5/23 11:10am 199 4 G 12 88° 20% - - 42° 89.1° 55.1° - - -
5/23 11:00am 220 2 G 4 87° 21% - - 42° 87.1° 55.1° - - -
5/23 10:50am 323 1 G 3 86° 23% - - 45° 86.7° 55.1° - - -
5/23 10:40am 308 1 G 3 84° 24% - - 43° 85.2° 55.1° - - -
5/23 10:30am 43 1 G 3 83° 27% - - 45° 83.6° 55.1° - - -
5/23 10:20am 142 1 G 2 82° 30% - - 47° 82.4° 55.1° - - -
5/23 10:10am 109 1 G 3 79° 33% - - 48° 80.8° 55.1° - - -
5/23 10:00am 130 1 G 3 77° 36% - - 48° 78.1° 55.1° - - -
5/23 9:50am 16 1 G 3 74° 43% - - 50° 75.6° 55.1° - - -
5/23 9:40am 264 0 G 2 72° 49% - - 52° 73.3° 55.1° - - -
5/23 9:30am 107 1 G 2 71° 52% - - 53° 71.7° 55.1° - - -
5/23 9:20am 133 0 G 2 70° 59% - - 55° 71.1° 55.1° - - -
5/23 9:10am 110 1 G 3 68° 63% - - 55° 69° 55.1° - - -
5/23 9:00am 127 1 G 2 67° 70% - - 57° 67.8° 55.1° - - -
5/23 8:50am 48 1 G 2 65° 76% - - 57° 65.9° 55.1° - - -
5/23 8:40am 77 1 G 3 64° 80% - - 58° 64.7° 55.1° - - -
5/23 8:30am 142 1 G 2 62° 86% - - 58° 63.3° 55.1° - - -
5/23 8:20am 178 2 G 3 60° 88% - - 57° 60.7° 55.1° - - -
5/23 8:10am 185 1 G 3 59° 90% - - 56° 60° 55.1° - - -
5/23 8:00am 217 1 G 3 59° 91% - - 56° 60° 55.1° - - -
5/23 7:50am 217 1 G 2 58° 92% - - 55° 60° 55.1° - - -
5/23 7:40am 204 2 G 5 57° 92% - - 54° 60° 55.1° - - -
5/23 7:30am 235 2 G 4 57° 92% - - 54° 60° 55.1° - - -
5/23 7:20am 216 1 G 3 57° 92% - - 54° 60° 55.1° - - -
5/23 7:10am 207 2 G 3 56° 92% - - 54° 60° 55.1° - - -
5/23 7:00am 159 1 G 2 56° 92% - - 54° 60° 55.1° - - -
5/23 6:50am 167 1 G 2 56° 92% - - 54° 60° 55.1° - - -
5/23 6:40am 170 1 G 2 56° 92% - - 53° 60° 55.1° - - -
5/23 6:30am 177 0 G 1 55° 92% - - 53° 60° 55.1° - - -
5/23 6:20am 174 1 G 2 55° 92% - - 53° 60° 55.1° - - -
5/23 6:10am 351 0 G 1 56° 92% - - 53° 60° 55.3° - - -
5/23 6:00am 186 0 G 1 56° 92% - - 53° 60° 55.5° - - -